createdAt,value
2022-10-24T00:01:32.492Z,100688.52
2022-10-24T00:04:00.640Z,100686.51
2022-10-24T00:06:28.666Z,100683.80
2022-10-24T00:08:56.462Z,100683.46
2022-10-24T00:11:27.067Z,100675.42
2022-10-24T00:13:57.121Z,100679.17
2022-10-24T00:16:25.934Z,100680.15
2022-10-24T00:18:54.151Z,100685.33
2022-10-24T00:21:22.736Z,100692.97
2022-10-24T00:23:50.578Z,100693.10
2022-10-24T00:26:18.396Z,100691.05
2022-10-24T00:28:46.253Z,100690.27
2022-10-24T00:31:16.457Z,100692.27
2022-10-24T00:33:45.659Z,100689.48
2022-10-24T00:36:16.381Z,100688.48
2022-10-24T00:38:44.427Z,100686.90
2022-10-24T00:41:24.263Z,100687.84
2022-10-24T00:44:17.646Z,100686.67
2022-10-24T00:46:50.843Z,100679.88
2022-10-24T00:49:23.084Z,100681.05
2022-10-24T00:51:54.803Z,100674.44
2022-10-24T00:54:23.211Z,100667.44
2022-10-24T00:57:08.604Z,100664.98
2022-10-24T00:59:38.593Z,100665.09
2022-10-24T01:02:06.394Z,100666.66
2022-10-24T01:04:34.435Z,100665.23
2022-10-24T01:07:19.117Z,100666.08
2022-10-24T01:10:02.127Z,100659.59
2022-10-24T01:12:48.776Z,100656.09
2022-10-24T01:15:28.117Z,100658.36
2022-10-24T01:18:11.733Z,100659.17
2022-10-24T01:20:54.705Z,100652.10
2022-10-24T01:23:48.428Z,100654.48
2022-10-24T01:26:53.354Z,100647.39
2022-10-24T01:29:46.055Z,100645.16
2022-10-24T01:32:32.241Z,100638.00
2022-10-24T01:34:59.929Z,100638.14
2022-10-24T01:37:39.280Z,100638.82
2022-10-24T01:40:42.312Z,100634.59
2022-10-24T01:43:13.366Z,100637.45
2022-10-24T01:45:47.237Z,100641.77
2022-10-24T01:48:20.023Z,100640.65
2022-10-24T01:50:51.833Z,100637.23
2022-10-24T01:53:24.893Z,100635.33
2022-10-24T01:55:54.364Z,100636.48
2022-10-24T01:58:22.590Z,100631.17
2022-10-24T02:00:55.128Z,100630.13
2022-10-24T02:03:29.676Z,100630.11
2022-10-24T02:06:11.631Z,100623.78
2022-10-24T02:08:46.745Z,100621.39
2022-10-24T02:11:14.650Z,100623.88
2022-10-24T02:14:03.082Z,100619.46
2022-10-24T02:16:31.756Z,100626.03
2022-10-24T02:19:00.952Z,100620.93
2022-10-24T02:21:43.483Z,100623.20
2022-10-24T02:24:20.201Z,100615.88
2022-10-24T02:27:08.674Z,100613.08
2022-10-24T02:30:17.049Z,100612.42
2022-10-24T02:32:48.778Z,100609.20
2022-10-24T02:35:19.609Z,100605.51
2022-10-24T02:37:53.058Z,100605.23
2022-10-24T02:40:22.649Z,100612.71
2022-10-24T02:42:55.256Z,100612.06
2022-10-24T02:45:24.136Z,100611.95
2022-10-24T02:47:58.559Z,100608.39
2022-10-24T02:50:27.113Z,100608.13
2022-10-24T02:52:54.914Z,100605.95
2022-10-24T02:55:22.742Z,100609.84
2022-10-24T02:57:50.647Z,100607.54
2022-10-24T03:00:18.838Z,100600.78
2022-10-24T03:02:46.919Z,100602.84
2022-10-24T03:05:14.875Z,100601.82
2022-10-24T03:07:42.561Z,100603.01
2022-10-24T03:10:10.596Z,100602.38
2022-10-24T03:12:38.524Z,100608.46
2022-10-24T03:15:07.145Z,100607.23
2022-10-24T03:17:34.962Z,100604.02
2022-10-24T03:20:03.015Z,100602.02
2022-10-24T03:22:31.042Z,100596.03
2022-10-24T03:25:02.042Z,100594.77
2022-10-24T03:27:30.274Z,100595.17
2022-10-24T03:29:58.049Z,100594.96
2022-10-24T03:34:54.575Z,100590.82
2022-10-24T03:37:22.350Z,100588.36
2022-10-24T03:39:50.338Z,100592.59
2022-10-24T03:42:18.166Z,100592.00
2022-10-24T03:44:46.270Z,100581.20
2022-10-24T03:47:14.012Z,100577.04
2022-10-24T03:49:41.747Z,100583.36
2022-10-24T03:52:09.970Z,100583.04
2022-10-24T03:54:38.814Z,100583.16
2022-10-24T03:57:06.617Z,100582.92
2022-10-24T03:59:34.527Z,100583.33
2022-10-24T04:02:03.207Z,100577.73
2022-10-24T04:04:30.924Z,100575.16
2022-10-24T04:07:00.324Z,100575.48
2022-10-24T04:09:28.438Z,100571.59
2022-10-24T04:11:56.218Z,100570.56
2022-10-24T04:14:24.026Z,100570.74
2022-10-24T04:16:51.822Z,100572.04
2022-10-24T04:19:19.763Z,100578.71
2022-10-24T04:21:48.083Z,100577.57
2022-10-24T04:24:16.533Z,100577.27
2022-10-24T04:26:44.553Z,100573.88
2022-10-24T04:29:12.592Z,100568.91
2022-10-24T04:31:40.592Z,100573.10
2022-10-24T04:34:08.448Z,100572.64
2022-10-24T04:36:36.154Z,100569.96
2022-10-24T04:39:07.971Z,100564.23
2022-10-24T04:41:35.797Z,100563.11
2022-10-24T04:44:03.940Z,100566.11
2022-10-24T04:46:31.729Z,100564.70
2022-10-24T04:48:59.786Z,100568.77
2022-10-24T04:51:27.683Z,100569.45
2022-10-24T04:53:55.475Z,100571.22
2022-10-24T04:56:25.933Z,100564.90
2022-10-24T04:58:53.756Z,100565.61
2022-10-24T05:01:21.519Z,100563.70
2022-10-24T05:03:49.430Z,100558.95
2022-10-24T05:06:17.204Z,100556.90
2022-10-24T05:08:45.013Z,100558.12
2022-10-24T05:11:12.947Z,100553.64
2022-10-24T05:13:42.262Z,100555.51
2022-10-24T05:16:10.128Z,100553.50
2022-10-24T05:18:37.869Z,100557.84
2022-10-24T05:21:05.958Z,100561.82
2022-10-24T05:23:33.890Z,100565.68
2022-10-24T05:26:01.907Z,100568.75
2022-10-24T05:28:29.691Z,100565.63
2022-10-24T05:30:57.675Z,100562.34
2022-10-24T05:33:25.464Z,100561.80
2022-10-24T05:35:53.594Z,100565.30
2022-10-24T05:38:21.495Z,100569.40
2022-10-24T05:40:51.414Z,100568.79
2022-10-24T05:43:19.605Z,100572.80
2022-10-24T05:48:22.099Z,100581.17
2022-10-24T05:50:49.940Z,100576.86
2022-10-24T05:53:17.793Z,100579.14
2022-10-24T05:55:45.589Z,100577.47
2022-10-24T05:58:13.266Z,100575.16
2022-10-24T06:00:41.090Z,100573.50
2022-10-24T06:03:11.306Z,100574.36
2022-10-24T06:05:39.450Z,100578.32
2022-10-24T06:08:07.557Z,100577.19
2022-10-24T06:10:35.594Z,100575.95
2022-10-24T06:13:03.639Z,100577.29
2022-10-24T06:15:31.874Z,100576.00
2022-10-24T06:18:00.623Z,100582.23
2022-10-24T06:20:28.481Z,100587.46
2022-10-24T06:22:56.328Z,100589.29
2022-10-24T06:25:24.211Z,100597.77
2022-10-24T06:27:52.020Z,100601.85
2022-10-24T06:30:19.963Z,100597.36
2022-10-24T06:32:48.029Z,100596.45
2022-10-24T06:35:16.116Z,100596.23
2022-10-24T06:37:47.187Z,100592.00
2022-10-24T06:40:17.428Z,100589.66
2022-10-24T06:42:45.513Z,100587.45
2022-10-24T06:45:13.991Z,100597.71
2022-10-24T06:47:41.807Z,100595.89
2022-10-24T06:50:09.961Z,100593.29
2022-10-24T06:52:40.166Z,100590.23
2022-10-24T06:55:08.648Z,100592.59
2022-10-24T06:57:36.682Z,100593.50
2022-10-24T07:00:06.232Z,100589.75
2022-10-24T07:02:34.161Z,100596.92
2022-10-24T07:05:02.198Z,100600.62
2022-10-24T07:07:30.080Z,100598.77
2022-10-24T07:09:57.827Z,100598.29
2022-10-24T07:12:26.218Z,100599.92
2022-10-24T07:14:54.030Z,100608.04
2022-10-24T07:17:21.914Z,100603.27
2022-10-24T07:19:57.197Z,100598.21
2022-10-24T07:22:25.044Z,100596.68
2022-10-24T07:24:54.218Z,100594.50
2022-10-24T07:27:22.609Z,100592.50
2022-10-24T07:29:51.708Z,100591.32
2022-10-24T07:32:21.008Z,100591.93
2022-10-24T07:34:48.868Z,100598.48
2022-10-24T07:37:18.192Z,100595.36
2022-10-24T07:39:46.688Z,100598.08
2022-10-24T07:42:16.013Z,100596.89
2022-10-24T07:44:43.705Z,100601.08
2022-10-24T07:47:12.141Z,100602.98
2022-10-24T07:49:40.567Z,100603.94
2022-10-24T07:52:08.450Z,100608.31
2022-10-24T07:54:37.481Z,100615.05
2022-10-24T07:57:05.735Z,100605.41
2022-10-24T07:59:48.778Z,100608.79
2022-10-24T08:02:19.027Z,100605.91
2022-10-24T08:04:46.698Z,100605.33
2022-10-24T08:07:14.535Z,100603.84
2022-10-24T08:09:46.122Z,100601.84
2022-10-24T08:12:14.061Z,100595.83
2022-10-24T08:14:42.200Z,100596.20
2022-10-24T08:17:10.819Z,100597.47
2022-10-24T08:19:43.869Z,100599.15
2022-10-24T08:22:12.669Z,100588.73
2022-10-24T08:24:42.217Z,100587.67
2022-10-24T08:27:10.095Z,100589.55
2022-10-24T08:29:38.001Z,100588.77
2022-10-24T08:32:06.903Z,100587.21
2022-10-24T08:34:35.110Z,100584.77
2022-10-24T08:37:04.131Z,100584.09
2022-10-24T08:39:32.043Z,100581.71
2022-10-24T08:42:05.910Z,100575.80
2022-10-24T08:44:42.225Z,100571.33
2022-10-24T08:50:13.042Z,100569.41
2022-10-24T08:52:59.231Z,100565.22
2022-10-24T08:55:49.475Z,100556.21
2022-10-24T08:58:30.349Z,100553.43
2022-10-24T09:01:02.059Z,100553.80
2022-10-24T09:03:57.700Z,100552.30
2022-10-24T09:06:29.353Z,100552.78
2022-10-24T09:08:59.492Z,100549.68
2022-10-24T09:11:42.445Z,100552.10
2022-10-24T09:14:21.309Z,100551.52
2022-10-24T09:17:02.447Z,100554.70
2022-10-24T09:19:31.166Z,100550.15
2022-10-24T09:22:01.342Z,100549.11
2022-10-24T09:24:37.811Z,100544.55
2022-10-24T09:27:10.799Z,100545.79
2022-10-24T09:29:39.036Z,100538.25
2022-10-24T09:32:15.183Z,100536.54
2022-10-24T09:34:43.714Z,100535.00
2022-10-24T09:37:34.390Z,100530.51
2022-10-24T09:40:08.873Z,100517.87
2022-10-24T09:42:38.772Z,100513.10
2022-10-24T09:45:25.204Z,100510.66
2022-10-24T09:47:59.711Z,100505.93
2022-10-24T09:50:27.954Z,100501.41
2022-10-24T09:52:58.665Z,100499.75
2022-10-24T09:55:31.331Z,100495.45
2022-10-24T09:58:04.076Z,100492.92
2022-10-24T10:00:36.423Z,100490.72
2022-10-24T10:03:23.462Z,100489.64
2022-10-24T10:05:57.896Z,100484.02
2022-10-24T10:08:32.079Z,100477.45
2022-10-24T10:11:06.724Z,100475.32
2022-10-24T10:13:45.585Z,100474.83
2022-10-24T10:16:29.016Z,100471.37
2022-10-24T10:19:22.423Z,100468.65
2022-10-24T10:21:57.875Z,100464.84
2022-10-24T10:24:43.441Z,100464.44
2022-10-24T10:27:30.523Z,100468.23
2022-10-24T10:30:15.147Z,100457.27
2022-10-24T10:33:10.874Z,100446.45
2022-10-24T10:36:19.414Z,100447.42
2022-10-24T10:38:55.689Z,100441.35
2022-10-24T10:41:41.623Z,100434.70
2022-10-24T10:44:24.719Z,100425.93
2022-10-24T10:47:35.182Z,100426.25
2022-10-24T10:50:26.075Z,100421.20
2022-10-24T10:53:00.437Z,100420.88
2022-10-24T10:56:08.600Z,100418.98
2022-10-24T10:58:53.110Z,100416.16
2022-10-24T11:01:30.267Z,100410.27
2022-10-24T11:04:26.500Z,100403.44
2022-10-24T11:07:11.782Z,100399.23
2022-10-24T11:09:45.246Z,100394.77
2022-10-24T11:12:20.854Z,100394.71
2022-10-24T11:14:56.288Z,100393.81
2022-10-24T11:17:30.170Z,100386.10
2022-10-24T11:20:18.842Z,100388.20
2022-10-24T11:22:52.882Z,100379.66
2022-10-24T11:25:31.865Z,100380.14
2022-10-24T11:28:07.244Z,100377.85
2022-10-24T11:30:56.391Z,100385.00
2022-10-24T11:33:28.054Z,100375.87
2022-10-24T11:36:05.375Z,100374.75
2022-10-24T11:38:38.529Z,100372.46
2022-10-24T11:41:23.948Z,100375.92
2022-10-24T11:43:56.342Z,100376.19
2022-10-24T11:46:32.034Z,100370.07
2022-10-24T11:49:12.338Z,100366.36
2022-10-24T11:51:55.517Z,100362.39
2022-10-24T11:54:37.451Z,100360.77
2022-10-24T11:57:17.839Z,100361.17
2022-10-24T11:59:45.813Z,100357.44
2022-10-24T12:02:51.047Z,100354.59
2022-10-24T12:05:34.894Z,100354.52
2022-10-24T12:08:11.356Z,100349.77
2022-10-24T12:11:04.912Z,100349.42
2022-10-24T12:13:54.376Z,100350.28
2022-10-24T12:17:09.706Z,100350.08
2022-10-24T12:19:41.399Z,100346.40
2022-10-24T12:22:17.643Z,100335.16
2022-10-24T12:24:45.700Z,100340.54
2022-10-24T12:27:27.183Z,100336.66
2022-10-24T12:30:04.114Z,100342.05
2022-10-24T12:32:40.260Z,100343.94
2022-10-24T12:35:31.344Z,100342.54
2022-10-24T12:38:00.998Z,100345.80
2022-10-24T12:40:58.643Z,100342.90
2022-10-24T12:43:37.062Z,100337.05
2022-10-24T12:46:22.657Z,100327.75
2022-10-24T12:48:56.817Z,100326.09
2022-10-24T12:51:39.231Z,100317.98
2022-10-24T12:54:13.003Z,100313.46
2022-10-24T12:56:49.820Z,100308.47
2022-10-24T12:59:31.826Z,100311.70
2022-10-24T13:02:12.572Z,100309.98
2022-10-24T13:05:03.138Z,100304.98
2022-10-24T13:07:50.854Z,100302.88
2022-10-24T13:10:33.537Z,100298.20
2022-10-24T13:13:26.444Z,100292.36
2022-10-24T13:16:08.289Z,100285.51
2022-10-24T13:18:50.889Z,100289.58
2022-10-24T13:21:21.722Z,100292.54
2022-10-24T13:23:50.670Z,100293.27
2022-10-24T13:26:55.739Z,100297.71
2022-10-24T13:29:23.539Z,100300.27
2022-10-24T13:31:54.165Z,100295.43
2022-10-24T13:34:25.014Z,100295.73
2022-10-24T13:37:02.734Z,100296.98
2022-10-24T13:39:38.687Z,100294.33
2022-10-24T13:42:37.644Z,100292.27
2022-10-24T13:45:19.489Z,100292.30
2022-10-24T13:47:53.916Z,100293.52
2022-10-24T13:50:26.720Z,100295.07
2022-10-24T13:53:15.989Z,100295.98
2022-10-24T13:55:47.787Z,100296.39
2022-10-24T13:58:20.110Z,100295.47
2022-10-24T14:00:56.837Z,100290.61
2022-10-24T14:03:27.248Z,100286.73
2022-10-24T14:06:08.574Z,100282.71
2022-10-24T14:08:56.071Z,100280.89
2022-10-24T14:11:31.406Z,100285.61
2022-10-24T14:14:04.253Z,100289.55
2022-10-24T14:16:36.161Z,100290.30
2022-10-24T14:19:27.069Z,100291.93
2022-10-24T14:21:59.292Z,100290.86
2022-10-24T14:24:27.059Z,100287.65
2022-10-24T14:26:56.870Z,100287.89
2022-10-24T14:29:31.841Z,100286.50
2022-10-24T14:32:01.360Z,100285.05
2022-10-24T14:34:35.187Z,100281.59
2022-10-24T14:37:30.886Z,100284.42
2022-10-24T14:39:59.380Z,100282.64
2022-10-24T14:42:28.406Z,100282.30
2022-10-24T14:44:58.405Z,100281.08
2022-10-24T14:47:38.935Z,100276.17
2022-10-24T14:50:40.928Z,100272.75
2022-10-24T14:53:36.807Z,100271.09
2022-10-24T14:56:08.280Z,100264.23
2022-10-24T14:58:37.741Z,100261.38
2022-10-24T15:01:05.677Z,100263.93
2022-10-24T15:03:33.570Z,100266.42
2022-10-24T15:06:12.903Z,100269.86
2022-10-24T15:08:45.930Z,100268.56
2022-10-24T15:11:22.092Z,100266.73
2022-10-24T15:14:05.642Z,100264.69
2022-10-24T15:16:38.689Z,100264.56
2022-10-24T15:19:14.671Z,100261.55
2022-10-24T15:21:45.367Z,100258.63
2022-10-24T15:24:24.166Z,100258.58
2022-10-24T15:26:52.891Z,100256.78
2022-10-24T15:29:23.082Z,100258.63
2022-10-24T15:31:52.169Z,100259.21
2022-10-24T15:34:23.853Z,100257.05
2022-10-24T15:36:52.863Z,100260.70
2022-10-24T15:39:24.529Z,100261.13
2022-10-24T15:41:53.705Z,100263.52
2022-10-24T15:44:25.632Z,100265.75
2022-10-24T15:46:54.332Z,100257.02
2022-10-24T15:49:22.265Z,100251.91
2022-10-24T15:51:50.993Z,100244.11
2022-10-24T15:54:20.995Z,100238.13
2022-10-24T15:56:49.832Z,100237.23
2022-10-24T15:59:19.809Z,100240.14
2022-10-24T16:01:51.254Z,100241.72
2022-10-24T16:04:20.155Z,100240.39
2022-10-24T16:06:49.195Z,100243.16
2022-10-24T16:09:20.828Z,100245.65
2022-10-24T16:11:49.264Z,100245.89
2022-10-24T16:14:22.172Z,100245.19
2022-10-24T16:16:50.050Z,100242.93
2022-10-24T16:19:20.560Z,100243.26
2022-10-24T16:21:48.327Z,100247.50
2022-10-24T16:24:16.125Z,100246.31
2022-10-24T16:26:44.338Z,100241.41
2022-10-24T16:29:12.120Z,100244.65
2022-10-24T16:31:39.998Z,100239.84
2022-10-24T16:34:07.769Z,100236.58
2022-10-24T16:36:35.693Z,100237.51
2022-10-24T16:39:04.142Z,100236.07
2022-10-24T16:41:31.926Z,100240.58
2022-10-24T16:43:59.777Z,100243.88
2022-10-24T16:46:28.252Z,100243.90
2022-10-24T16:48:56.236Z,100248.29
2022-10-24T16:51:32.408Z,100245.79
2022-10-24T16:54:02.634Z,100244.45
2022-10-24T16:56:30.859Z,100245.52
2022-10-24T16:58:58.754Z,100245.78
2022-10-24T17:01:28.015Z,100245.46
2022-10-24T17:03:56.000Z,100249.54
2022-10-24T17:06:24.040Z,100259.77
2022-10-24T17:08:52.572Z,100260.88
2022-10-24T17:11:43.216Z,100256.57
2022-10-24T17:16:41.850Z,100266.84
2022-10-24T17:19:16.314Z,100268.23
2022-10-24T17:21:48.207Z,100270.42
2022-10-24T17:24:22.610Z,100264.44
2022-10-24T17:26:50.714Z,100267.13
2022-10-24T17:29:31.442Z,100267.31
2022-10-24T17:31:59.833Z,100261.55
2022-10-24T17:34:28.662Z,100264.25
2022-10-24T17:37:10.880Z,100270.68
2022-10-24T17:39:52.620Z,100275.81
2022-10-24T17:42:21.224Z,100276.88
2022-10-24T17:44:49.194Z,100273.86
2022-10-24T17:47:17.129Z,100281.30
2022-10-24T17:49:44.909Z,100281.86
2022-10-24T17:52:17.600Z,100278.15
2022-10-24T17:54:46.006Z,100283.61
2022-10-24T17:57:14.060Z,100286.16
2022-10-24T17:59:41.899Z,100287.01
2022-10-24T18:02:14.384Z,100288.23
2022-10-24T18:04:44.675Z,100283.27
2022-10-24T18:07:12.802Z,100288.05
2022-10-24T18:09:40.709Z,100286.34
2022-10-24T18:12:08.610Z,100290.92
2022-10-24T18:14:37.566Z,100290.53
2022-10-24T18:17:05.437Z,100290.94
2022-10-24T18:19:33.298Z,100290.36
2022-10-24T18:22:01.161Z,100287.55
2022-10-24T18:24:29.024Z,100287.38
2022-10-24T18:26:56.810Z,100280.48
2022-10-24T18:29:24.950Z,100281.54
2022-10-24T18:31:53.287Z,100292.81
2022-10-24T18:34:21.031Z,100293.59
2022-10-24T18:36:48.904Z,100298.32
2022-10-24T18:39:17.222Z,100299.09
2022-10-24T18:41:49.027Z,100309.14
2022-10-24T18:44:29.443Z,100306.59
2022-10-24T18:47:03.556Z,100307.75
2022-10-24T18:49:33.697Z,100304.13
2022-10-24T18:52:10.705Z,100312.00
2022-10-24T18:54:46.884Z,100311.95
2022-10-24T18:57:22.960Z,100311.23
2022-10-24T18:59:51.464Z,100308.41
2022-10-24T19:02:35.168Z,100305.59
2022-10-24T19:05:15.410Z,100308.38
2022-10-24T19:07:44.978Z,100310.88
2022-10-24T19:10:23.614Z,100311.15
2022-10-24T19:12:54.281Z,100312.55
2022-10-24T19:15:23.010Z,100313.42
2022-10-24T19:17:52.288Z,100308.55
2022-10-24T19:20:23.422Z,100312.53
2022-10-24T19:22:51.528Z,100309.83
2022-10-24T19:25:20.183Z,100314.70
2022-10-24T19:27:49.410Z,100317.47
2022-10-24T19:30:17.302Z,100323.41
2022-10-24T19:32:46.732Z,100326.40
2022-10-24T19:35:16.247Z,100327.65
2022-10-24T19:37:45.274Z,100331.41
2022-10-24T19:40:13.579Z,100330.44
2022-10-24T19:42:41.646Z,100331.31
2022-10-24T19:45:10.239Z,100334.02
2022-10-24T19:47:38.007Z,100330.55
2022-10-24T19:50:06.546Z,100332.36
2022-10-24T19:52:35.365Z,100332.64
2022-10-24T19:55:03.302Z,100325.85
2022-10-24T19:57:31.291Z,100321.99
2022-10-24T19:59:59.116Z,100321.67
2022-10-24T20:02:28.194Z,100328.77
2022-10-24T20:04:55.911Z,100331.55
2022-10-24T20:07:23.767Z,100330.22
2022-10-24T20:09:51.669Z,100332.20
2022-10-24T20:12:20.882Z,100336.61
2022-10-24T20:14:48.810Z,100338.61
2022-10-24T20:17:17.073Z,100336.64
2022-10-24T20:19:44.945Z,100338.19
2022-10-24T20:22:12.827Z,100337.33
2022-10-24T20:24:40.636Z,100340.27
2022-10-24T20:27:08.534Z,100337.80
2022-10-24T20:29:37.711Z,100333.66
2022-10-24T20:32:05.568Z,100330.85
2022-10-24T20:34:33.273Z,100332.36
2022-10-24T20:37:01.032Z,100330.84
2022-10-24T20:39:32.112Z,100329.06
2022-10-24T20:42:00.003Z,100322.51
2022-10-24T20:44:27.740Z,100318.27
2022-10-24T20:46:56.694Z,100318.39
2022-10-24T20:49:24.877Z,100317.58
2022-10-24T20:51:52.735Z,100318.70
2022-10-24T20:54:20.533Z,100319.46
2022-10-24T20:56:48.496Z,100319.70
2022-10-24T20:59:17.023Z,100317.27
2022-10-24T21:01:44.830Z,100317.94
2022-10-24T21:04:14.667Z,100316.95
2022-10-24T21:06:44.960Z,100316.73
2022-10-24T21:09:12.868Z,100311.00
2022-10-24T21:11:40.652Z,100307.89
2022-10-24T21:14:11.861Z,100309.59
2022-10-24T21:16:39.678Z,100307.36
2022-10-24T21:19:07.467Z,100306.16
2022-10-24T21:21:35.261Z,100303.41
2022-10-24T21:24:05.718Z,100303.23
2022-10-24T21:26:38.530Z,100303.14
2022-10-24T21:29:20.956Z,100306.66
2022-10-24T21:31:56.018Z,100307.75
2022-10-24T21:34:23.745Z,100301.19
2022-10-24T21:36:51.609Z,100305.22
2022-10-24T21:39:19.447Z,100305.70
2022-10-24T21:41:47.218Z,100297.89
2022-10-24T21:44:15.174Z,100297.75
2022-10-24T21:46:43.139Z,100298.69
2022-10-24T21:49:11.409Z,100299.02
2022-10-24T21:51:41.305Z,100298.37
2022-10-24T21:54:35.489Z,100296.94
2022-10-24T21:57:03.365Z,100296.97
2022-10-24T21:59:31.137Z,100296.14
2022-10-24T22:01:59.068Z,100295.52
2022-10-24T22:04:26.907Z,100296.09
2022-10-24T22:06:54.639Z,100293.83
2022-10-24T22:09:23.890Z,100293.98
2022-10-24T22:11:54.760Z,100298.13
2022-10-24T22:14:22.421Z,100298.73
2022-10-24T22:16:50.287Z,100298.29
2022-10-24T22:19:18.176Z,100294.17
2022-10-24T22:21:49.118Z,100291.91
2022-10-24T22:24:20.250Z,100291.02
2022-10-24T22:26:49.196Z,100292.91
2022-10-24T22:29:20.289Z,100297.23
2022-10-24T22:31:48.353Z,100293.83
2022-10-24T22:34:19.715Z,100297.77
2022-10-24T22:36:52.797Z,100295.10
2022-10-24T22:39:23.415Z,100296.25
2022-10-24T22:41:52.158Z,100290.52
2022-10-24T22:44:21.219Z,100292.24
2022-10-24T22:47:01.045Z,100293.20
2022-10-24T22:49:44.042Z,100294.93
2022-10-24T22:52:13.219Z,100297.31
2022-10-24T22:54:41.225Z,100294.11
2022-10-24T22:57:09.351Z,100296.23
2022-10-24T22:59:37.422Z,100300.07
2022-10-24T23:02:19.415Z,100300.86
2022-10-24T23:04:53.588Z,100301.58
2022-10-24T23:07:32.206Z,100300.73
2022-10-24T23:09:59.973Z,100304.33
2022-10-24T23:12:28.046Z,100307.89
2022-10-24T23:14:56.011Z,100305.80
2022-10-24T23:17:29.789Z,100306.80
2022-10-24T23:19:57.826Z,100311.14
2022-10-24T23:22:28.183Z,100304.41
2022-10-24T23:24:58.913Z,100300.86
2022-10-24T23:27:36.165Z,100295.97
2022-10-24T23:30:07.408Z,100285.54
2022-10-24T23:32:38.588Z,100279.89
2022-10-24T23:35:07.572Z,100282.75
2022-10-24T23:37:41.822Z,100274.38
2022-10-24T23:40:32.119Z,100275.27
2022-10-24T23:43:01.063Z,100281.83
2022-10-24T23:45:35.622Z,100282.38
2022-10-24T23:48:25.192Z,100277.54
2022-10-24T23:51:09.006Z,100276.30
2022-10-24T23:53:48.967Z,100273.67
2022-10-24T23:56:25.415Z,100269.77
2022-10-24T23:58:53.954Z,100270.98
